sensor_id;sensor_type;location;lat;lon;timestamp;P1;durP1;ratioP1;P2;durP2;ratioP2
1765;SDS011;880;52.452;8.656;2023-02-04T00:00:11;31.47;;;6.50;;
1765;SDS011;880;52.452;8.656;2023-02-04T00:02:41;32.70;;;6.97;;
1765;SDS011;880;52.452;8.656;2023-02-04T00:05:08;23.33;;;5.37;;
1765;SDS011;880;52.452;8.656;2023-02-04T00:07:39;25.07;;;5.90;;
1765;SDS011;880;52.452;8.656;2023-02-04T00:10:07;27.27;;;5.60;;
1765;SDS011;880;52.452;8.656;2023-02-04T00:12:35;31.07;;;6.47;;
1765;SDS011;880;52.452;8.656;2023-02-04T00:15:02;23.13;;;6.10;;
1765;SDS011;880;52.452;8.656;2023-02-04T00:17:30;16.60;;;4.57;;
1765;SDS011;880;52.452;8.656;2023-02-04T00:19:57;29.10;;;5.43;;
1765;SDS011;880;52.452;8.656;2023-02-04T00:22:24;16.63;;;4.63;;
1765;SDS011;880;52.452;8.656;2023-02-04T00:24:53;20.53;;;4.90;;
1765;SDS011;880;52.452;8.656;2023-02-04T00:27:20;34.23;;;5.63;;
1765;SDS011;880;52.452;8.656;2023-02-04T00:29:47;23.20;;;6.23;;
1765;SDS011;880;52.452;8.656;2023-02-04T00:32:14;20.90;;;5.33;;
1765;SDS011;880;52.452;8.656;2023-02-04T00:34:41;28.60;;;6.20;;
1765;SDS011;880;52.452;8.656;2023-02-04T00:37:08;15.80;;;5.33;;
1765;SDS011;880;52.452;8.656;2023-02-04T00:39:36;22.23;;;5.23;;
1765;SDS011;880;52.452;8.656;2023-02-04T00:42:04;22.50;;;4.87;;
1765;SDS011;880;52.452;8.656;2023-02-04T00:44:34;25.17;;;4.97;;
1765;SDS011;880;52.452;8.656;2023-02-04T00:47:01;38.77;;;6.20;;
1765;SDS011;880;52.452;8.656;2023-02-04T00:49:29;22.80;;;5.47;;
1765;SDS011;880;52.452;8.656;2023-02-04T00:51:56;28.43;;;5.50;;
1765;SDS011;880;52.452;8.656;2023-02-04T00:54:24;19.17;;;5.93;;
1765;SDS011;880;52.452;8.656;2023-02-04T00:56:51;25.43;;;6.50;;
1765;SDS011;880;52.452;8.656;2023-02-04T00:59:18;19.70;;;6.30;;
1765;SDS011;880;52.452;8.656;2023-02-04T01:01:45;19.30;;;5.00;;
1765;SDS011;880;52.452;8.656;2023-02-04T01:04:13;22.83;;;4.63;;
1765;SDS011;880;52.452;8.656;2023-02-04T01:06:40;18.00;;;4.20;;
1765;SDS011;880;52.452;8.656;2023-02-04T01:09:08;20.00;;;4.13;;
1765;SDS011;880;52.452;8.656;2023-02-04T01:11:35;18.57;;;3.90;;
1765;SDS011;880;52.452;8.656;2023-02-04T01:14:02;12.93;;;2.83;;
1765;SDS011;880;52.452;8.656;2023-02-04T01:16:30;11.80;;;2.87;;
1765;SDS011;880;52.452;8.656;2023-02-04T01:18:57;12.47;;;2.67;;
1765;SDS011;880;52.452;8.656;2023-02-04T01:21:25;13.40;;;3.40;;
1765;SDS011;880;52.452;8.656;2023-02-04T01:23:52;7.73;;;2.20;;
1765;SDS011;880;52.452;8.656;2023-02-04T01:26:19;9.83;;;2.47;;
1765;SDS011;880;52.452;8.656;2023-02-04T01:28:46;12.73;;;2.70;;
1765;SDS011;880;52.452;8.656;2023-02-04T01:31:13;12.00;;;2.60;;
1765;SDS011;880;52.452;8.656;2023-02-04T01:33:41;15.30;;;2.80;;
1765;SDS011;880;52.452;8.656;2023-02-04T01:36:10;6.70;;;2.10;;
1765;SDS011;880;52.452;8.656;2023-02-04T01:38:37;11.83;;;3.20;;
1765;SDS011;880;52.452;8.656;2023-02-04T01:41:04;9.37;;;3.07;;
1765;SDS011;880;52.452;8.656;2023-02-04T01:43:31;9.83;;;2.30;;
1765;SDS011;880;52.452;8.656;2023-02-04T01:45:59;8.80;;;2.90;;
1765;SDS011;880;52.452;8.656;2023-02-04T01:48:28;5.60;;;2.00;;
1765;SDS011;880;52.452;8.656;2023-02-04T01:51:14;4.27;;;1.80;;
1765;SDS011;880;52.452;8.656;2023-02-04T01:53:52;6.97;;;2.13;;
1765;SDS011;880;52.452;8.656;2023-02-04T01:56:21;8.40;;;2.30;;
1765;SDS011;880;52.452;8.656;2023-02-04T01:58:54;7.77;;;2.03;;
1765;SDS011;880;52.452;8.656;2023-02-04T02:01:39;10.40;;;2.13;;
1765;SDS011;880;52.452;8.656;2023-02-04T02:04:13;11.27;;;2.10;;
1765;SDS011;880;52.452;8.656;2023-02-04T02:06:44;10.40;;;1.83;;
1765;SDS011;880;52.452;8.656;2023-02-04T02:09:17;10.00;;;2.07;;
1765;SDS011;880;52.452;8.656;2023-02-04T02:11:45;10.17;;;3.57;;
1765;SDS011;880;52.452;8.656;2023-02-04T02:14:12;7.30;;;2.33;;
1765;SDS011;880;52.452;8.656;2023-02-04T02:16:40;13.30;;;2.73;;
1765;SDS011;880;52.452;8.656;2023-02-04T02:19:08;12.00;;;2.70;;
1765;SDS011;880;52.452;8.656;2023-02-04T02:21:43;6.53;;;2.00;;
1765;SDS011;880;52.452;8.656;2023-02-04T02:24:24;12.30;;;2.00;;
1765;SDS011;880;52.452;8.656;2023-02-04T02:26:55;7.40;;;2.20;;
1765;SDS011;880;52.452;8.656;2023-02-04T02:29:26;7.40;;;1.73;;
1765;SDS011;880;52.452;8.656;2023-02-04T02:31:53;5.27;;;2.10;;
1765;SDS011;880;52.452;8.656;2023-02-04T02:34:25;6.17;;;2.00;;
1765;SDS011;880;52.452;8.656;2023-02-04T02:36:53;5.07;;;1.93;;
1765;SDS011;880;52.452;8.656;2023-02-04T02:39:22;3.40;;;2.10;;
1765;SDS011;880;52.452;8.656;2023-02-04T02:41:51;6.57;;;2.23;;
1765;SDS011;880;52.452;8.656;2023-02-04T02:44:18;8.70;;;2.00;;
1765;SDS011;880;52.452;8.656;2023-02-04T02:46:45;12.63;;;2.37;;
1765;SDS011;880;52.452;8.656;2023-02-04T02:49:15;7.67;;;1.77;;
1765;SDS011;880;52.452;8.656;2023-02-04T02:51:46;11.20;;;2.50;;
1765;SDS011;880;52.452;8.656;2023-02-04T02:54:18;15.00;;;2.87;;
1765;SDS011;880;52.452;8.656;2023-02-04T02:56:58;7.40;;;2.37;;
1765;SDS011;880;52.452;8.656;2023-02-04T02:59:25;6.93;;;1.77;;
1765;SDS011;880;52.452;8.656;2023-02-04T03:01:56;8.97;;;2.30;;
1765;SDS011;880;52.452;8.656;2023-02-04T03:04:29;12.73;;;2.17;;
1765;SDS011;880;52.452;8.656;2023-02-04T03:07:01;6.37;;;1.90;;
1765;SDS011;880;52.452;8.656;2023-02-04T03:09:28;6.47;;;1.83;;
1765;SDS011;880;52.452;8.656;2023-02-04T03:11:55;7.33;;;2.00;;
1765;SDS011;880;52.452;8.656;2023-02-04T03:14:22;10.60;;;2.13;;
1765;SDS011;880;52.452;8.656;2023-02-04T03:16:51;2.63;;;1.50;;
1765;SDS011;880;52.452;8.656;2023-02-04T03:19:19;5.27;;;1.90;;
1765;SDS011;880;52.452;8.656;2023-02-04T03:21:48;6.93;;;2.03;;
1765;SDS011;880;52.452;8.656;2023-02-04T03:24:15;6.20;;;2.10;;
1765;SDS011;880;52.452;8.656;2023-02-04T03:26:43;6.70;;;2.10;;
1765;SDS011;880;52.452;8.656;2023-02-04T03:29:10;3.07;;;1.20;;
1765;SDS011;880;52.452;8.656;2023-02-04T03:31:37;2.80;;;1.43;;
1765;SDS011;880;52.452;8.656;2023-02-04T03:34:04;5.73;;;3.07;;
1765;SDS011;880;52.452;8.656;2023-02-04T03:36:31;9.43;;;2.10;;
1765;SDS011;880;52.452;8.656;2023-02-04T03:38:58;5.93;;;2.23;;
1765;SDS011;880;52.452;8.656;2023-02-04T03:41:25;5.60;;;1.93;;
1765;SDS011;880;52.452;8.656;2023-02-04T03:43:52;4.93;;;2.33;;
1765;SDS011;880;52.452;8.656;2023-02-04T03:46:19;4.77;;;1.83;;
1765;SDS011;880;52.452;8.656;2023-02-04T03:48:48;3.83;;;1.40;;
1765;SDS011;880;52.452;8.656;2023-02-04T03:51:15;6.73;;;1.70;;
1765;SDS011;880;52.452;8.656;2023-02-04T03:53:42;7.80;;;2.00;;
1765;SDS011;880;52.452;8.656;2023-02-04T03:56:09;5.40;;;1.50;;
1765;SDS011;880;52.452;8.656;2023-02-04T03:58:36;3.90;;;1.80;;
1765;SDS011;880;52.452;8.656;2023-02-04T04:01:03;4.67;;;1.60;;
1765;SDS011;880;52.452;8.656;2023-02-04T04:03:30;4.00;;;1.90;;
1765;SDS011;880;52.452;8.656;2023-02-04T04:05:57;2.47;;;2.10;;
1765;SDS011;880;52.452;8.656;2023-02-04T04:08:24;4.60;;;1.53;;
1765;SDS011;880;52.452;8.656;2023-02-04T04:10:51;5.63;;;1.83;;
1765;SDS011;880;52.452;8.656;2023-02-04T04:13:18;4.57;;;1.63;;
1765;SDS011;880;52.452;8.656;2023-02-04T04:15:45;3.50;;;1.70;;
1765;SDS011;880;52.452;8.656;2023-02-04T04:18:12;5.70;;;1.97;;
1765;SDS011;880;52.452;8.656;2023-02-04T04:20:38;6.07;;;2.30;;
1765;SDS011;880;52.452;8.656;2023-02-04T04:23:05;6.43;;;1.93;;
1765;SDS011;880;52.452;8.656;2023-02-04T04:25:32;3.67;;;1.87;;
1765;SDS011;880;52.452;8.656;2023-02-04T04:27:59;8.10;;;2.60;;
1765;SDS011;880;52.452;8.656;2023-02-04T04:30:27;5.57;;;1.73;;
1765;SDS011;880;52.452;8.656;2023-02-04T04:32:54;6.40;;;1.93;;
1765;SDS011;880;52.452;8.656;2023-02-04T04:35:20;6.37;;;1.93;;
1765;SDS011;880;52.452;8.656;2023-02-04T04:37:47;6.30;;;2.00;;
1765;SDS011;880;52.452;8.656;2023-02-04T04:40:14;7.03;;;2.37;;
1765;SDS011;880;52.452;8.656;2023-02-04T04:42:41;9.33;;;2.90;;
1765;SDS011;880;52.452;8.656;2023-02-04T04:45:09;8.97;;;2.77;;
1765;SDS011;880;52.452;8.656;2023-02-04T04:47:36;17.70;;;4.10;;
1765;SDS011;880;52.452;8.656;2023-02-04T04:50:03;5.57;;;2.57;;
1765;SDS011;880;52.452;8.656;2023-02-04T04:52:31;5.40;;;2.53;;
1765;SDS011;880;52.452;8.656;2023-02-04T04:54:57;5.87;;;2.40;;
1765;SDS011;880;52.452;8.656;2023-02-04T04:57:24;9.60;;;2.60;;
1765;SDS011;880;52.452;8.656;2023-02-04T04:59:51;8.40;;;2.30;;
1765;SDS011;880;52.452;8.656;2023-02-04T05:02:18;7.20;;;2.83;;
1765;SDS011;880;52.452;8.656;2023-02-04T05:04:45;7.03;;;2.87;;
1765;SDS011;880;52.452;8.656;2023-02-04T05:07:12;9.10;;;2.77;;
1765;SDS011;880;52.452;8.656;2023-02-04T05:09:39;7.80;;;2.40;;
1765;SDS011;880;52.452;8.656;2023-02-04T05:12:06;5.67;;;2.27;;
1765;SDS011;880;52.452;8.656;2023-02-04T05:14:33;9.87;;;2.63;;
1765;SDS011;880;52.452;8.656;2023-02-04T05:17:00;5.83;;;1.97;;
1765;SDS011;880;52.452;8.656;2023-02-04T05:19:27;2.60;;;1.77;;
1765;SDS011;880;52.452;8.656;2023-02-04T05:21:54;6.70;;;2.90;;
1765;SDS011;880;52.452;8.656;2023-02-04T05:24:22;6.23;;;2.20;;
1765;SDS011;880;52.452;8.656;2023-02-04T05:26:49;4.10;;;2.40;;
1765;SDS011;880;52.452;8.656;2023-02-04T05:29:16;6.17;;;2.50;;
1765;SDS011;880;52.452;8.656;2023-02-04T05:31:43;11.40;;;5.57;;
1765;SDS011;880;52.452;8.656;2023-02-04T05:34:10;6.97;;;5.30;;
1765;SDS011;880;52.452;8.656;2023-02-04T05:36:37;7.30;;;5.70;;
1765;SDS011;880;52.452;8.656;2023-02-04T05:39:04;7.80;;;4.83;;
1765;SDS011;880;52.452;8.656;2023-02-04T05:41:31;5.40;;;3.20;;
1765;SDS011;880;52.452;8.656;2023-02-04T05:43:58;5.20;;;2.83;;
1765;SDS011;880;52.452;8.656;2023-02-04T05:46:25;4.73;;;2.60;;
1765;SDS011;880;52.452;8.656;2023-02-04T05:48:52;3.03;;;2.00;;
1765;SDS011;880;52.452;8.656;2023-02-04T05:51:19;6.57;;;2.50;;
1765;SDS011;880;52.452;8.656;2023-02-04T05:53:46;2.80;;;2.57;;
1765;SDS011;880;52.452;8.656;2023-02-04T05:56:13;4.50;;;2.50;;
1765;SDS011;880;52.452;8.656;2023-02-04T05:58:40;3.70;;;2.00;;
1765;SDS011;880;52.452;8.656;2023-02-04T06:01:07;5.10;;;2.17;;
1765;SDS011;880;52.452;8.656;2023-02-04T06:03:34;6.67;;;2.70;;
1765;SDS011;880;52.452;8.656;2023-02-04T06:06:01;6.27;;;2.77;;
1765;SDS011;880;52.452;8.656;2023-02-04T06:08:28;4.83;;;2.00;;
1765;SDS011;880;52.452;8.656;2023-02-04T06:10:55;4.97;;;3.27;;
1765;SDS011;880;52.452;8.656;2023-02-04T06:13:22;9.77;;;4.60;;
1765;SDS011;880;52.452;8.656;2023-02-04T06:15:49;7.20;;;5.10;;
1765;SDS011;880;52.452;8.656;2023-02-04T06:18:16;6.00;;;3.83;;
1765;SDS011;880;52.452;8.656;2023-02-04T06:20:43;10.80;;;3.07;;
1765;SDS011;880;52.452;8.656;2023-02-04T06:23:10;5.17;;;2.67;;
1765;SDS011;880;52.452;8.656;2023-02-04T06:25:36;7.27;;;2.20;;
1765;SDS011;880;52.452;8.656;2023-02-04T06:28:03;4.30;;;1.97;;
1765;SDS011;880;52.452;8.656;2023-02-04T06:30:30;3.83;;;2.03;;
1765;SDS011;880;52.452;8.656;2023-02-04T06:32:58;6.20;;;2.70;;
1765;SDS011;880;52.452;8.656;2023-02-04T06:35:25;2.03;;;1.83;;
1765;SDS011;880;52.452;8.656;2023-02-04T06:37:52;5.23;;;2.73;;
1765;SDS011;880;52.452;8.656;2023-02-04T06:40:19;3.73;;;2.37;;
1765;SDS011;880;52.452;8.656;2023-02-04T06:42:46;2.80;;;2.00;;
1765;SDS011;880;52.452;8.656;2023-02-04T06:45:13;3.90;;;3.50;;
1765;SDS011;880;52.452;8.656;2023-02-04T06:47:40;13.00;;;11.80;;
1765;SDS011;880;52.452;8.656;2023-02-04T06:50:07;9.80;;;8.80;;
1765;SDS011;880;52.452;8.656;2023-02-04T06:52:34;12.27;;;11.07;;
1765;SDS011;880;52.452;8.656;2023-02-04T06:55:02;12.73;;;9.77;;
1765;SDS011;880;52.452;8.656;2023-02-04T06:57:29;6.53;;;6.03;;
1765;SDS011;880;52.452;8.656;2023-02-04T06:59:56;4.77;;;4.33;;
1765;SDS011;880;52.452;8.656;2023-02-04T07:02:23;5.33;;;4.83;;
1765;SDS011;880;52.452;8.656;2023-02-04T07:04:50;6.57;;;4.90;;
1765;SDS011;880;52.452;8.656;2023-02-04T07:07:17;5.90;;;5.10;;
1765;SDS011;880;52.452;8.656;2023-02-04T07:09:44;5.67;;;5.17;;
1765;SDS011;880;52.452;8.656;2023-02-04T07:12:11;7.67;;;4.27;;
1765;SDS011;880;52.452;8.656;2023-02-04T07:14:41;8.17;;;3.70;;
1765;SDS011;880;52.452;8.656;2023-02-04T07:17:08;4.53;;;2.80;;
1765;SDS011;880;52.452;8.656;2023-02-04T07:19:35;2.90;;;2.70;;
1765;SDS011;880;52.452;8.656;2023-02-04T07:22:02;5.17;;;3.30;;
1765;SDS011;880;52.452;8.656;2023-02-04T07:24:30;5.60;;;3.07;;
1765;SDS011;880;52.452;8.656;2023-02-04T07:26:57;3.70;;;2.17;;
1765;SDS011;880;52.452;8.656;2023-02-04T07:29:25;3.33;;;3.00;;
1765;SDS011;880;52.452;8.656;2023-02-04T07:31:52;3.50;;;2.50;;
1765;SDS011;880;52.452;8.656;2023-02-04T07:34:19;13.00;;;8.40;;
1765;SDS011;880;52.452;8.656;2023-02-04T07:36:47;14.30;;;9.73;;
1765;SDS011;880;52.452;8.656;2023-02-04T07:39:14;9.97;;;6.10;;
1765;SDS011;880;52.452;8.656;2023-02-04T07:41:41;2.90;;;2.80;;
1765;SDS011;880;52.452;8.656;2023-02-04T07:44:10;9.00;;;4.00;;
1765;SDS011;880;52.452;8.656;2023-02-04T07:46:37;5.07;;;4.40;;
1765;SDS011;880;52.452;8.656;2023-02-04T07:49:04;5.57;;;3.70;;
1765;SDS011;880;52.452;8.656;2023-02-04T07:51:31;4.53;;;3.23;;
1765;SDS011;880;52.452;8.656;2023-02-04T07:53:58;4.73;;;3.43;;
1765;SDS011;880;52.452;8.656;2023-02-04T07:56:25;5.73;;;3.13;;
1765;SDS011;880;52.452;8.656;2023-02-04T07:58:52;6.90;;;3.07;;
1765;SDS011;880;52.452;8.656;2023-02-04T08:01:19;4.97;;;3.63;;
1765;SDS011;880;52.452;8.656;2023-02-04T08:03:46;3.37;;;2.90;;
1765;SDS011;880;52.452;8.656;2023-02-04T08:06:13;5.70;;;3.67;;
1765;SDS011;880;52.452;8.656;2023-02-04T08:08:40;3.17;;;2.97;;
1765;SDS011;880;52.452;8.656;2023-02-04T08:11:07;3.93;;;3.33;;
1765;SDS011;880;52.452;8.656;2023-02-04T08:13:34;3.33;;;3.07;;
1765;SDS011;880;52.452;8.656;2023-02-04T08:16:00;4.47;;;3.37;;
1765;SDS011;880;52.452;8.656;2023-02-04T08:18:28;3.90;;;3.60;;
1765;SDS011;880;52.452;8.656;2023-02-04T08:20:55;4.70;;;2.60;;
1765;SDS011;880;52.452;8.656;2023-02-04T08:23:24;3.10;;;2.73;;
1765;SDS011;880;52.452;8.656;2023-02-04T08:25:51;3.30;;;3.00;;
1765;SDS011;880;52.452;8.656;2023-02-04T08:28:18;3.13;;;2.80;;
1765;SDS011;880;52.452;8.656;2023-02-04T08:30:45;2.77;;;2.57;;
1765;SDS011;880;52.452;8.656;2023-02-04T08:33:12;2.60;;;2.40;;
1765;SDS011;880;52.452;8.656;2023-02-04T08:35:39;3.50;;;3.00;;
1765;SDS011;880;52.452;8.656;2023-02-04T08:38:06;3.47;;;3.17;;
1765;SDS011;880;52.452;8.656;2023-02-04T08:40:33;2.77;;;2.47;;
1765;SDS011;880;52.452;8.656;2023-02-04T08:43:00;3.83;;;2.77;;
1765;SDS011;880;52.452;8.656;2023-02-04T08:45:26;3.80;;;3.50;;
1765;SDS011;880;52.452;8.656;2023-02-04T08:47:53;3.63;;;2.87;;
1765;SDS011;880;52.452;8.656;2023-02-04T08:50:20;3.23;;;2.80;;
1765;SDS011;880;52.452;8.656;2023-02-04T08:52:47;3.60;;;2.70;;
1765;SDS011;880;52.452;8.656;2023-02-04T08:55:14;3.00;;;2.80;;
1765;SDS011;880;52.452;8.656;2023-02-04T08:57:41;3.30;;;3.00;;
1765;SDS011;880;52.452;8.656;2023-02-04T09:00:09;3.50;;;3.20;;
1765;SDS011;880;52.452;8.656;2023-02-04T09:02:37;3.07;;;2.77;;
1765;SDS011;880;52.452;8.656;2023-02-04T09:05:04;7.00;;;2.57;;
1765;SDS011;880;52.452;8.656;2023-02-04T09:07:31;2.80;;;2.60;;
1765;SDS011;880;52.452;8.656;2023-02-04T09:09:58;4.20;;;2.73;;
1765;SDS011;880;52.452;8.656;2023-02-04T09:12:25;5.60;;;2.70;;
1765;SDS011;880;52.452;8.656;2023-02-04T09:14:52;2.90;;;2.37;;
1765;SDS011;880;52.452;8.656;2023-02-04T09:17:19;5.83;;;2.37;;
1765;SDS011;880;52.452;8.656;2023-02-04T09:19:46;5.30;;;2.93;;
1765;SDS011;880;52.452;8.656;2023-02-04T09:22:13;3.13;;;2.33;;
1765;SDS011;880;52.452;8.656;2023-02-04T09:24:40;3.10;;;2.80;;
1765;SDS011;880;52.452;8.656;2023-02-04T09:27:07;3.37;;;3.17;;
1765;SDS011;880;52.452;8.656;2023-02-04T09:29:34;3.00;;;2.80;;
1765;SDS011;880;52.452;8.656;2023-02-04T09:32:01;2.60;;;2.40;;
1765;SDS011;880;52.452;8.656;2023-02-04T09:34:28;2.20;;;2.10;;
1765;SDS011;880;52.452;8.656;2023-02-04T09:36:55;2.20;;;2.00;;
1765;SDS011;880;52.452;8.656;2023-02-04T09:39:22;2.40;;;2.00;;
1765;SDS011;880;52.452;8.656;2023-02-04T09:41:49;2.77;;;2.57;;
1765;SDS011;880;52.452;8.656;2023-02-04T09:44:19;2.70;;;2.60;;
1765;SDS011;880;52.452;8.656;2023-02-04T09:46:51;2.67;;;2.47;;
1765;SDS011;880;52.452;8.656;2023-02-04T09:49:21;3.80;;;2.67;;
1765;SDS011;880;52.452;8.656;2023-02-04T09:51:48;3.80;;;2.47;;
1765;SDS011;880;52.452;8.656;2023-02-04T09:54:19;4.37;;;2.97;;
1765;SDS011;880;52.452;8.656;2023-02-04T09:56:48;3.90;;;2.43;;
1765;SDS011;880;52.452;8.656;2023-02-04T09:59:19;5.43;;;3.10;;
1765;SDS011;880;52.452;8.656;2023-02-04T10:01:51;2.20;;;2.00;;
1765;SDS011;880;52.452;8.656;2023-02-04T10:04:23;2.33;;;2.13;;
1765;SDS011;880;52.452;8.656;2023-02-04T10:06:50;2.83;;;2.37;;
1765;SDS011;880;52.452;8.656;2023-02-04T10:09:17;2.60;;;2.40;;
1765;SDS011;880;52.452;8.656;2023-02-04T10:11:45;2.60;;;2.40;;
1765;SDS011;880;52.452;8.656;2023-02-04T10:14:14;2.90;;;2.70;;
1765;SDS011;880;52.452;8.656;2023-02-04T10:16:53;2.73;;;2.43;;
1765;SDS011;880;52.452;8.656;2023-02-04T10:19:24;3.23;;;2.80;;
1765;SDS011;880;52.452;8.656;2023-02-04T10:21:54;2.67;;;2.47;;
1765;SDS011;880;52.452;8.656;2023-02-04T10:24:23;2.67;;;2.47;;
1765;SDS011;880;52.452;8.656;2023-02-04T10:26:52;2.40;;;2.30;;
1765;SDS011;880;52.452;8.656;2023-02-04T10:29:20;2.50;;;2.40;;
1765;SDS011;880;52.452;8.656;2023-02-04T10:31:51;5.23;;;3.10;;
1765;SDS011;880;52.452;8.656;2023-02-04T10:34:34;3.10;;;2.80;;
1765;SDS011;880;52.452;8.656;2023-02-04T10:37:26;4.20;;;2.90;;
1765;SDS011;880;52.452;8.656;2023-02-04T10:39:52;2.90;;;2.70;;
1765;SDS011;880;52.452;8.656;2023-02-04T10:42:26;4.00;;;2.53;;
1765;SDS011;880;52.452;8.656;2023-02-04T10:44:56;3.10;;;2.90;;
1765;SDS011;880;52.452;8.656;2023-02-04T10:47:24;3.30;;;2.90;;
1765;SDS011;880;52.452;8.656;2023-02-04T10:50:16;3.57;;;3.23;;
1765;SDS011;880;52.452;8.656;2023-02-04T10:52:48;2.60;;;2.40;;
1765;SDS011;880;52.452;8.656;2023-02-04T10:55:41;3.40;;;3.10;;
1765;SDS011;880;52.452;8.656;2023-02-04T10:58:13;5.00;;;2.90;;
1765;SDS011;880;52.452;8.656;2023-02-04T11:00:52;3.00;;;2.80;;
1765;SDS011;880;52.452;8.656;2023-02-04T11:03:26;2.70;;;2.43;;
1765;SDS011;880;52.452;8.656;2023-02-04T11:05:58;2.87;;;2.57;;
1765;SDS011;880;52.452;8.656;2023-02-04T11:08:27;4.33;;;2.80;;
1765;SDS011;880;52.452;8.656;2023-02-04T11:18:52;3.03;;;2.83;;
1765;SDS011;880;52.452;8.656;2023-02-04T11:26:40;3.13;;;2.93;;
1765;SDS011;880;52.452;8.656;2023-02-04T11:42:14;2.90;;;2.70;;
1765;SDS011;880;52.452;8.656;2023-02-04T11:44:51;3.73;;;2.60;;
1765;SDS011;880;52.452;8.656;2023-02-04T11:47:38;2.73;;;2.53;;
1765;SDS011;880;52.452;8.656;2023-02-04T11:50:16;2.73;;;2.47;;
1765;SDS011;880;52.452;8.656;2023-02-04T11:52:57;2.90;;;2.80;;
1765;SDS011;880;52.452;8.656;2023-02-04T11:55:27;2.70;;;2.50;;
1765;SDS011;880;52.452;8.656;2023-02-04T11:57:57;3.17;;;2.97;;
1765;SDS011;880;52.452;8.656;2023-02-04T12:00:32;3.03;;;2.83;;
1765;SDS011;880;52.452;8.656;2023-02-04T12:03:01;2.57;;;2.47;;
1765;SDS011;880;52.452;8.656;2023-02-04T12:05:46;3.23;;;3.00;;
1765;SDS011;880;52.452;8.656;2023-02-04T12:13:30;2.60;;;2.47;;
1765;SDS011;880;52.452;8.656;2023-02-04T12:15:59;2.80;;;2.60;;
1765;SDS011;880;52.452;8.656;2023-02-04T12:18:32;3.07;;;2.87;;
1765;SDS011;880;52.452;8.656;2023-02-04T12:21:00;2.93;;;2.73;;
1765;SDS011;880;52.452;8.656;2023-02-04T12:23:29;3.30;;;3.00;;
1765;SDS011;880;52.452;8.656;2023-02-04T12:25:56;2.80;;;2.60;;
1765;SDS011;880;52.452;8.656;2023-02-04T12:28:24;2.80;;;2.60;;
1765;SDS011;880;52.452;8.656;2023-02-04T12:30:53;3.07;;;2.80;;
1765;SDS011;880;52.452;8.656;2023-02-04T12:33:21;2.73;;;2.40;;
1765;SDS011;880;52.452;8.656;2023-02-04T12:35:48;2.90;;;2.60;;
1765;SDS011;880;52.452;8.656;2023-02-04T12:38:15;3.10;;;2.80;;
1765;SDS011;880;52.452;8.656;2023-02-04T12:40:44;2.70;;;2.60;;
1765;SDS011;880;52.452;8.656;2023-02-04T12:43:11;2.73;;;2.53;;
1765;SDS011;880;52.452;8.656;2023-02-04T12:45:38;2.90;;;2.70;;
1765;SDS011;880;52.452;8.656;2023-02-04T12:48:11;3.37;;;3.00;;
1765;SDS011;880;52.452;8.656;2023-02-04T12:50:39;3.83;;;3.00;;
1765;SDS011;880;52.452;8.656;2023-02-04T12:53:06;3.83;;;3.53;;
1765;SDS011;880;52.452;8.656;2023-02-04T12:55:34;3.00;;;2.70;;
1765;SDS011;880;52.452;8.656;2023-02-04T12:58:12;3.13;;;2.90;;
1765;SDS011;880;52.452;8.656;2023-02-04T13:00:39;4.10;;;2.50;;
1765;SDS011;880;52.452;8.656;2023-02-04T13:03:07;3.50;;;2.40;;
1765;SDS011;880;52.452;8.656;2023-02-04T13:05:34;2.90;;;2.70;;
1765;SDS011;880;52.452;8.656;2023-02-04T13:08:01;2.80;;;2.60;;
1765;SDS011;880;52.452;8.656;2023-02-04T13:10:28;3.10;;;2.90;;
1765;SDS011;880;52.452;8.656;2023-02-04T13:12:55;2.80;;;2.60;;
1765;SDS011;880;52.452;8.656;2023-02-04T13:15:22;3.20;;;3.00;;
1765;SDS011;880;52.452;8.656;2023-02-04T13:17:48;2.57;;;2.40;;
1765;SDS011;880;52.452;8.656;2023-02-04T13:20:15;2.40;;;2.30;;
1765;SDS011;880;52.452;8.656;2023-02-04T13:22:43;1.97;;;1.87;;
1765;SDS011;880;52.452;8.656;2023-02-04T13:25:10;2.50;;;2.30;;
1765;SDS011;880;52.452;8.656;2023-02-04T13:27:37;3.73;;;2.60;;
1765;SDS011;880;52.452;8.656;2023-02-04T13:30:05;3.00;;;2.33;;
1765;SDS011;880;52.452;8.656;2023-02-04T13:32:34;6.30;;;2.27;;
1765;SDS011;880;52.452;8.656;2023-02-04T13:35:01;2.30;;;2.10;;
1765;SDS011;880;52.452;8.656;2023-02-04T13:37:28;2.77;;;2.57;;
1765;SDS011;880;52.452;8.656;2023-02-04T13:39:54;2.77;;;2.67;;
1765;SDS011;880;52.452;8.656;2023-02-04T13:42:21;2.70;;;2.60;;
1765;SDS011;880;52.452;8.656;2023-02-04T13:44:48;3.77;;;3.47;;
1765;SDS011;880;52.452;8.656;2023-02-04T13:47:15;13.60;;;11.07;;
1765;SDS011;880;52.452;8.656;2023-02-04T13:49:42;3.83;;;3.63;;
1765;SDS011;880;52.452;8.656;2023-02-04T13:52:09;4.07;;;3.77;;
1765;SDS011;880;52.452;8.656;2023-02-04T13:54:36;2.60;;;2.50;;
1765;SDS011;880;52.452;8.656;2023-02-04T13:57:03;2.87;;;2.67;;
1765;SDS011;880;52.452;8.656;2023-02-04T13:59:30;2.90;;;2.70;;
1765;SDS011;880;52.452;8.656;2023-02-04T14:01:57;2.77;;;2.63;;
1765;SDS011;880;52.452;8.656;2023-02-04T14:04:24;2.87;;;2.73;;
1765;SDS011;880;52.452;8.656;2023-02-04T14:06:52;2.53;;;2.33;;
1765;SDS011;880;52.452;8.656;2023-02-04T14:09:20;5.60;;;3.03;;
1765;SDS011;880;52.452;8.656;2023-02-04T14:11:47;3.10;;;2.90;;
1765;SDS011;880;52.452;8.656;2023-02-04T14:14:14;2.33;;;2.13;;
1765;SDS011;880;52.452;8.656;2023-02-04T14:16:41;3.33;;;2.60;;
1765;SDS011;880;52.452;8.656;2023-02-04T14:19:08;2.73;;;2.53;;
1765;SDS011;880;52.452;8.656;2023-02-04T14:21:35;2.30;;;2.17;;
1765;SDS011;880;52.452;8.656;2023-02-04T14:24:02;4.30;;;4.00;;
1765;SDS011;880;52.452;8.656;2023-02-04T14:26:29;16.17;;;14.47;;
1765;SDS011;880;52.452;8.656;2023-02-04T14:28:56;5.47;;;5.17;;
1765;SDS011;880;52.452;8.656;2023-02-04T14:31:23;3.50;;;3.30;;
1765;SDS011;880;52.452;8.656;2023-02-04T14:33:50;3.60;;;3.40;;
1765;SDS011;880;52.452;8.656;2023-02-04T14:36:17;4.30;;;4.00;;
1765;SDS011;880;52.452;8.656;2023-02-04T14:38:44;6.63;;;6.20;;
1765;SDS011;880;52.452;8.656;2023-02-04T14:41:10;2.33;;;2.13;;
1765;SDS011;880;52.452;8.656;2023-02-04T14:43:41;2.83;;;2.63;;
1765;SDS011;880;52.452;8.656;2023-02-04T14:46:08;2.77;;;2.63;;
1765;SDS011;880;52.452;8.656;2023-02-04T14:48:35;3.00;;;2.70;;
1765;SDS011;880;52.452;8.656;2023-02-04T14:51:02;2.70;;;2.60;;
1765;SDS011;880;52.452;8.656;2023-02-04T14:53:29;3.47;;;2.63;;
1765;SDS011;880;52.452;8.656;2023-02-04T14:55:56;2.60;;;2.50;;
1765;SDS011;880;52.452;8.656;2023-02-04T14:58:23;2.43;;;2.33;;
1765;SDS011;880;52.452;8.656;2023-02-04T15:00:53;2.80;;;2.60;;
1765;SDS011;880;52.452;8.656;2023-02-04T15:03:20;2.40;;;2.00;;
1765;SDS011;880;52.452;8.656;2023-02-04T15:05:48;3.03;;;2.30;;
1765;SDS011;880;52.452;8.656;2023-02-04T15:08:15;2.30;;;1.90;;
1765;SDS011;880;52.452;8.656;2023-02-04T15:10:41;2.60;;;2.23;;
1765;SDS011;880;52.452;8.656;2023-02-04T15:13:08;2.10;;;2.00;;
1765;SDS011;880;52.452;8.656;2023-02-04T15:15:36;2.17;;;1.97;;
1765;SDS011;880;52.452;8.656;2023-02-04T15:18:03;2.23;;;2.10;;
1765;SDS011;880;52.452;8.656;2023-02-04T15:20:30;2.27;;;2.17;;
1765;SDS011;880;52.452;8.656;2023-02-04T15:22:57;2.23;;;2.03;;
1765;SDS011;880;52.452;8.656;2023-02-04T15:25:26;2.53;;;2.30;;
1765;SDS011;880;52.452;8.656;2023-02-04T15:27:53;3.60;;;2.53;;
1765;SDS011;880;52.452;8.656;2023-02-04T15:30:20;2.37;;;2.27;;
1765;SDS011;880;52.452;8.656;2023-02-04T15:32:47;2.30;;;2.20;;
1765;SDS011;880;52.452;8.656;2023-02-04T15:35:14;3.10;;;2.80;;
1765;SDS011;880;52.452;8.656;2023-02-04T15:37:40;3.70;;;2.87;;
1765;SDS011;880;52.452;8.656;2023-02-04T15:40:08;3.77;;;3.37;;
1765;SDS011;880;52.452;8.656;2023-02-04T15:42:35;3.10;;;2.90;;
1765;SDS011;880;52.452;8.656;2023-02-04T15:45:03;3.17;;;2.90;;
1765;SDS011;880;52.452;8.656;2023-02-04T15:47:30;2.93;;;2.73;;
1765;SDS011;880;52.452;8.656;2023-02-04T15:49:57;3.33;;;3.00;;
1765;SDS011;880;52.452;8.656;2023-02-04T15:52:24;4.73;;;2.87;;
1765;SDS011;880;52.452;8.656;2023-02-04T15:54:54;2.93;;;2.73;;
1765;SDS011;880;52.452;8.656;2023-02-04T15:57:21;3.77;;;3.43;;
1765;SDS011;880;52.452;8.656;2023-02-04T15:59:48;3.50;;;3.20;;
1765;SDS011;880;52.452;8.656;2023-02-04T16:02:14;4.03;;;3.73;;
1765;SDS011;880;52.452;8.656;2023-02-04T16:04:41;6.90;;;6.23;;